• Join FlightAware (Why Join?)
  • Login
  • US Flag 
08:51AM EDT


 

Airport Tracker/Info


-or-


 

Live Flight TrackerFlight Track Log ✈ N826CH ✈ 21-Apr-2013 ✈ KUAO - KMCC

Flight Track Log - Related Links

Times and Time Zones

All times are in EDT time to prevent confusion due to time zone crossing. See the N826CH flight status page for this flight to view local times or setup timezone preferences in your user account.

Time Position Orientation Groundspeed Altitude Reporting Facility
EDT Latitude Longitude Course Direction KTS MPH feet Rate Location/Type
02:44PM 45.2614 -122.8281 170° South 137 158 2,400  Level Seattle Center
02:44PM 45.2764 -122.8497 315° West 131 151 3,100 900 Climbing Seattle Center
02:45PM 45.3011 -122.8858 314° West 121 139 3,900 780 Climbing Seattle Center
02:46PM 45.3106 -122.8972 320° Northwest 126 145 4,200 420 Climbing Seattle Center
02:47PM 45.2936 -122.9033 194° South 137 158 4,500 240 Climbing Seattle Center
02:48PM 44.9561 -122.7030 172° South  Level Estimated
02:48PM 45.2625 -122.9058 183° South 115 132 4,800  Level Seattle Center
02:49PM 44.9076 -122.6919 170° South  Level Estimated
02:49PM 45.2272 -122.9183 194° South 127 146 5,200  Level Seattle Center
02:50PM 45.1911 -122.9342 197° South 134 154 6,300 900 Climbing Seattle Center
02:51PM 45.1536 -122.9364 182° South 137 158 7,100 600 Climbing Seattle Center
02:52PM 45.1106 -122.9214 166° South 154 177 7,600 540 Climbing Seattle Center
02:53PM 45.0661 -122.9053 166° South 162 186 8,200 540 Climbing Seattle Center
02:54PM 45.0203 -122.8886 166° South 168 193 8,700 480 Climbing Seattle Center
02:55PM 44.9706 -122.8758 170° South 176 203 9,200 480 Climbing Seattle Center
02:56PM 44.9214 -122.8619 169° South 179 206 9,700 480 Climbing Seattle Center
02:57PM 44.8711 -122.8489 170° South 182 209 10,200 480 Climbing Seattle Center
02:58PM 44.8228 -122.8369 170° South 179 206 10,700 480 Climbing Seattle Center
02:59PM 44.7783 -122.8250 169° South 169 194 11,200 540 Climbing Seattle Center
03:00PM 44.7250 -122.8106 169° South 163 188 11,900 600 Climbing Seattle Center
03:01PM 44.6797 -122.8000 171° South 165 190 12,500 540 Climbing Seattle Center
03:02PM 44.6344 -122.7875 169° South 166 191 13,000 240 Climbing Seattle Center
03:03PM 44.5853 -122.7750 170° South 178 205 13,000  Level Seattle Center
03:04PM 44.5300 -122.7600 169° South 196 226 13,000  Level Seattle Center
03:05PM 44.4786 -122.7461 169° South 192 221 13,000  Level Seattle Center
03:06PM 44.4258 -122.7344 171° South 191 220 13,000  Level Seattle Center
03:07PM 44.3717 -122.7197 169° South 196 226 13,000  Level Seattle Center
03:08PM 44.3128 -122.7061 171° South 195 224 13,000  Level Seattle Center
03:09PM 44.2583 -122.6914 169° South 199 229 13,000  Level Seattle Center
03:10PM 44.2036 -122.6781 170° South 200 230 13,000  Level Seattle Center
03:11PM 44.1475 -122.6636 170° South 204 235 13,000  Level Seattle Center
03:12PM 44.0931 -122.6500 170° South 200 230 13,000  Level Seattle Center
03:13PM 44.0361 -122.6361 170° South 205 236 13,000  Level Seattle Center
03:14PM 43.9800 -122.6222 170° South 205 236 13,000  Level Seattle Center
03:15PM 43.9239 -122.6067 169° South 205 236 13,000  Level Seattle Center
03:16PM 43.8686 -122.5931 170° South 203 234 13,000  Level Seattle Center
03:17PM 43.8119 -122.5792 170° South 205 236 13,000  Level Seattle Center
03:18PM 43.7556 -122.5661 171° South 205 236 13,100  Climbing Seattle Center
03:19PM 43.6983 -122.5517 170° South 208 239 13,000 -60 Descending Seattle Center
03:20PM 43.6422 -122.5381 170° South 205 236 13,000  Level Seattle Center
03:21PM 43.5739 -122.5206 169° South 208 239 13,000  Level Seattle Center
03:22PM 43.5178 -122.5067 170° South 206 237 13,000  Level Seattle Center
03:23PM 43.4622 -122.4936 170° South 204 235 13,000  Level Seattle Center
03:24PM 43.4056 -122.4797 170° South 205 236 13,000  Level Seattle Center
03:25PM 43.3489 -122.4667 170° South 206 237 13,000  Level Seattle Center
03:26PM 43.2931 -122.4519 169° South 204 235 13,000  Level Seattle Center
03:28PM 43.2352 -122.4378 172° South  Level Estimated
03:28PM 43.1819 -122.4247 172° South 204 235 13,000  Level Seattle Center
03:29PM 43.1264 -122.4122 171° South 202 232 13,000  Level Seattle Center
03:30PM 43.0708 -122.3969 169° South 203 234 13,000  Level Seattle Center
03:31PM 43.0144 -122.3839 170° South 204 235 13,100  Climbing Seattle Center
03:32PM 42.9567 -122.3728 172° South 207 238 13,100  Level Seattle Center
03:33PM 42.9011 -122.3594 170° South 201 231 13,100  Level Seattle Center
03:34PM 42.8431 -122.3458 170° South 210 242 13,100  Level Seattle Center
03:35PM 42.7858 -122.3308 169° South 207 238 13,100 -60 Level Seattle Center
03:37PM 42.7264 -122.3167 170° South 206 237 13,000 -60 Descending Seattle Center
03:38PM 42.6711 -122.3036 170° South 202 232 13,000  Level Seattle Center
03:39PM 42.6153 -122.2892 169° South 204 235 13,000  Level Seattle Center
03:40PM 42.5592 -122.2764 170° South 204 235 13,000  Level Seattle Center
03:41PM 42.4922 -122.2597 170° South 204 235 13,000  Level Seattle Center
03:42PM 42.4367 -122.2389 165° South 205 236 13,000  Level Seattle Center
03:43PM 42.3817 -122.2197 166° South 206 237 13,000  Level Seattle Center
03:44PM 42.3267 -122.1997 165° South 205 236 13,000  Level Seattle Center
03:45PM 42.2717 -122.1803 165° South 205 236 13,000  Level Seattle Center
03:46PM 42.2175 -122.1614 166° South 204 235 13,000  Level Seattle Center
03:47PM 42.1619 -122.1411 165° South 208 239 13,000  Level Seattle Center
03:48PM 42.1089 -122.1231 166° South 204 235 13,000  Level Seattle Center
03:49PM 42.0558 -122.1044 165° South 201 231 13,000  Level Seattle Center
03:50PM 42.0033 -122.0861 165° South 199 229 13,000 -60 Level Seattle Center
03:51PM 41.9400 -122.0658 167° South 197 227 12,900  Descending Seattle Center
03:52PM 41.8867 -122.0483 166° South 198 228 13,000  Climbing Seattle Center
03:53PM 41.8333 -122.0300 166° South 199 229 13,000  Level Seattle Center
03:54PM 41.7792 -122.0119 166° South 200 230 13,000 -120 Level Seattle Center
03:55PM 41.6925 -121.9956 172° South 198 228 12,800  Descending Oakland Center
03:56PM 41.6708 -121.9911 171° South 198 228 13,000 120 Climbing Seattle Center
03:57PM 41.6167 -121.9797 171° South 198 228 13,000  Level Seattle Center
03:58PM 41.5608 -121.9678 171° South 200 230 13,000  Level Seattle Center
03:59PM 41.5058 -121.9572 172° South 201 231 13,000  Level Seattle Center
04:00PM 41.4506 -121.9458 171° South 200 230 13,000  Level Seattle Center
04:01PM 41.3950 -121.9339 171° South 201 231 13,000 -60 Level Seattle Center
04:02PM 41.3406 -121.9239 172° South 199 229 12,900 -60 Descending Seattle Center
04:03PM 41.2719 -121.9103 172° South 205 236 12,900  Level Seattle Center
04:04PM 41.2164 -121.8975 170° South 204 235 12,900  Level Seattle Center
04:05PM 41.1622 -121.8864 171° South 200 230 12,900 -60 Level Seattle Center
04:06PM 41.1219 -121.8783 171° South 199 229 12,800 -60 Descending Oakland Center
04:07PM 41.0669 -121.8675 172° South 199 229 12,800  Level Oakland Center
04:08PM 41.0139 -121.8561 171° South 196 226 12,800  Level Oakland Center
04:09PM 40.9611 -121.8456 171° South 193 222 12,800  Level Oakland Center
04:10PM 40.9072 -121.8356 172° South 195 224 12,800  Level Oakland Center
04:11PM 40.8417 -121.8219 171° South 197 227 12,800  Level Oakland Center
04:12PM 40.7883 -121.8094 170° South 196 226 12,800  Level Oakland Center
04:13PM 40.7347 -121.7994 172° South 195 224 12,800  Level Oakland Center
04:14PM 40.6800 -121.7894 172° South 198 228 12,800  Level Oakland Center
04:15PM 40.6256 -121.7781 171° South 197 227 12,800  Level Oakland Center
04:16PM 40.5708 -121.7678 172° South 198 228 12,900 -360 Climbing Oakland Center
04:17PM 40.5133 -121.7561 171° South 203 234 12,100 -600 Descending Oakland Center
04:19PM 40.3919 -121.7314 171° South 217 250 11,100 -360 Descending Oakland Center
04:20PM 40.3281 -121.7186 171° South 207 238 11,000 -60 Descending Oakland Center
04:21PM 40.2767 -121.7094 172° South 192 221 11,000  Level Oakland Center
04:22PM 40.2250 -121.6981 170° South 188 216 11,000  Level Oakland Center
04:23PM 40.1711 -121.6881 172° South 193 222 11,000  Level Oakland Center
04:24PM 40.1183 -121.6769 171° South 196 226 11,000  Level Oakland Center
04:25PM 40.0644 -121.6683 173° South 196 226 11,000 -60 Level Oakland Center
04:26PM 40.0106 -121.6564 170° South 196 226 10,900 -420 Descending Oakland Center
04:27PM 39.9536 -121.6461 172° South 203 234 10,200 -720 Descending Oakland Center
04:28PM 39.8939 -121.6342 171° South 212 244 9,500 -600 Descending Oakland Center
04:29PM 39.8336 -121.6236 172° South 216 249 9,000 -300 Descending Oakland Center
04:30PM 39.7714 -121.6111 171° South 198 228 9,000  Level Oakland Center
04:31PM 39.7203 -121.6011 171° South 187 215 9,000  Level Oakland Center
04:32PM 39.6689 -121.5917 172° South 187 215 9,100  Climbing Oakland Center
04:33PM 39.6169 -121.5817 172° South 188 216 9,100  Level Oakland Center
04:34PM 39.5650 -121.5719 172° South 188 216 9,100 -60 Level Oakland Center
04:35PM 39.5114 -121.5622 172° South 192 221 9,000 -300 Descending Oakland Center
04:36PM 39.4603 -121.5489 169° South 193 222 8,600 -600 Descending Oakland Center
04:37PM 39.4017 -121.5386 172° South 209 241 7,800 -840 Descending Oakland Center
04:38PM 39.3339 -121.5272 173° South 207 238 7,000 -420 Descending Oakland Center
04:40PM 39.2831 -121.5161 170° South 192 221 7,000  Level Oakland Center
04:41PM 39.2350 -121.5075 172° South 179 206 7,000  Level Oakland Center
04:42PM 39.1872 -121.4986 172° South 175 201 7,000  Level Oakland Center
04:43PM 39.1414 -121.4900 172° South 169 194 7,100 -180 Climbing Oakland Center
04:43PM 39.1000 -121.4833 173° South 205 236 6,700 -720 Descending Northern Cal TRACON
04:44PM 39.0500 -121.4667 165° South 184 212 5,900 -780 Descending Northern Cal TRACON
04:45PM 39.0167 -121.4667 180° South 184 212 5,300 -540 Descending Northern Cal TRACON
04:46PM 38.9667 -121.4500 165° South 169 194 4,900 -600 Descending Northern Cal TRACON
04:47PM 38.9167 -121.4500 180° South 179 206 4,200 -480 Descending Northern Cal TRACON
04:49PM 38.8372 -121.4336 171° South 175 201 3,700 -360 Descending Oakland Center